sensor_id;sensor_type;location;lat;lon;timestamp;temperature;humidity
28336;DHT22;15592;53.656;7.276;2023-07-20T00:02:23;14.80;99.90
28336;DHT22;15592;53.656;7.276;2023-07-20T00:04:49;14.90;99.90
28336;DHT22;15592;53.656;7.276;2023-07-20T00:07:15;14.90;99.90
28336;DHT22;15592;53.656;7.276;2023-07-20T00:09:40;14.80;99.90
28336;DHT22;15592;53.656;7.276;2023-07-20T00:12:06;14.80;99.90
28336;DHT22;15592;53.656;7.276;2023-07-20T00:14:32;14.80;99.90
28336;DHT22;15592;53.656;7.276;2023-07-20T00:16:58;14.80;99.90
28336;DHT22;15592;53.656;7.276;2023-07-20T00:19:24;14.80;99.90
28336;DHT22;15592;53.656;7.276;2023-07-20T00:21:50;14.80;99.90
28336;DHT22;15592;53.656;7.276;2023-07-20T00:24:16;14.80;99.90
28336;DHT22;15592;53.656;7.276;2023-07-20T00:26:43;14.80;99.90
28336;DHT22;15592;53.656;7.276;2023-07-20T00:29:09;14.80;99.90
28336;DHT22;15592;53.656;7.276;2023-07-20T00:31:35;14.70;99.90
28336;DHT22;15592;53.656;7.276;2023-07-20T00:34:05;14.70;99.90
28336;DHT22;15592;53.656;7.276;2023-07-20T00:36:31;14.70;99.90
28336;DHT22;15592;53.656;7.276;2023-07-20T00:38:57;14.70;99.90
28336;DHT22;15592;53.656;7.276;2023-07-20T00:41:23;14.70;99.90
28336;DHT22;15592;53.656;7.276;2023-07-20T00:43:48;14.70;99.90
28336;DHT22;15592;53.656;7.276;2023-07-20T00:46:14;14.60;99.90
28336;DHT22;15592;53.656;7.276;2023-07-20T00:48:41;14.60;99.90
28336;DHT22;15592;53.656;7.276;2023-07-20T00:51:07;14.60;99.90
28336;DHT22;15592;53.656;7.276;2023-07-20T00:53:32;14.60;99.90
28336;DHT22;15592;53.656;7.276;2023-07-20T00:55:58;14.60;99.90
28336;DHT22;15592;53.656;7.276;2023-07-20T00:58:24;14.60;99.90
28336;DHT22;15592;53.656;7.276;2023-07-20T01:00:51;14.50;99.90
28336;DHT22;15592;53.656;7.276;2023-07-20T01:03:17;14.50;99.90
28336;DHT22;15592;53.656;7.276;2023-07-20T01:05:51;14.50;99.90
28336;DHT22;15592;53.656;7.276;2023-07-20T01:08:33;14.60;99.90
28336;DHT22;15592;53.656;7.276;2023-07-20T01:11:09;14.60;99.90
28336;DHT22;15592;53.656;7.276;2023-07-20T01:13:37;14.60;99.90
28336;DHT22;15592;53.656;7.276;2023-07-20T01:16:03;14.60;99.90
28336;DHT22;15592;53.656;7.276;2023-07-20T01:18:28;14.60;99.90
28336;DHT22;15592;53.656;7.276;2023-07-20T01:20:59;14.60;99.90
28336;DHT22;15592;53.656;7.276;2023-07-20T01:30:15;14.50;99.90
28336;DHT22;15592;53.656;7.276;2023-07-20T01:32:23;14.50;99.90
28336;DHT22;15592;53.656;7.276;2023-07-20T01:34:52;14.50;99.90
28336;DHT22;15592;53.656;7.276;2023-07-20T01:37:19;14.50;99.90
28336;DHT22;15592;53.656;7.276;2023-07-20T01:39:45;14.50;99.90
28336;DHT22;15592;53.656;7.276;2023-07-20T01:42:12;14.50;99.90
28336;DHT22;15592;53.656;7.276;2023-07-20T01:44:38;14.50;99.90
28336;DHT22;15592;53.656;7.276;2023-07-20T01:47:03;14.50;99.90
28336;DHT22;15592;53.656;7.276;2023-07-20T01:49:29;14.50;99.90
28336;DHT22;15592;53.656;7.276;2023-07-20T01:51:55;14.50;99.90
28336;DHT22;15592;53.656;7.276;2023-07-20T01:54:20;14.50;99.90
28336;DHT22;15592;53.656;7.276;2023-07-20T01:56:46;14.50;99.90
28336;DHT22;15592;53.656;7.276;2023-07-20T01:59:12;14.50;99.90
28336;DHT22;15592;53.656;7.276;2023-07-20T02:01:38;14.60;99.90
28336;DHT22;15592;53.656;7.276;2023-07-20T02:04:03;14.50;99.90
28336;DHT22;15592;53.656;7.276;2023-07-20T02:06:30;14.50;99.90
28336;DHT22;15592;53.656;7.276;2023-07-20T02:08:55;14.50;99.90
28336;DHT22;15592;53.656;7.276;2023-07-20T02:11:21;14.50;99.90
28336;DHT22;15592;53.656;7.276;2023-07-20T02:13:47;14.50;99.90
28336;DHT22;15592;53.656;7.276;2023-07-20T02:16:12;14.50;99.90
28336;DHT22;15592;53.656;7.276;2023-07-20T02:18:38;14.50;99.90
28336;DHT22;15592;53.656;7.276;2023-07-20T02:21:04;14.50;99.90
28336;DHT22;15592;53.656;7.276;2023-07-20T02:23:30;14.60;99.90
28336;DHT22;15592;53.656;7.276;2023-07-20T02:25:56;14.60;99.90
28336;DHT22;15592;53.656;7.276;2023-07-20T02:28:21;14.60;99.90
28336;DHT22;15592;53.656;7.276;2023-07-20T02:30:47;14.60;99.90
28336;DHT22;15592;53.656;7.276;2023-07-20T02:33:15;14.60;99.90
28336;DHT22;15592;53.656;7.276;2023-07-20T02:35:40;14.60;99.90
28336;DHT22;15592;53.656;7.276;2023-07-20T02:38:06;14.60;99.90
28336;DHT22;15592;53.656;7.276;2023-07-20T02:40:32;14.60;99.90
28336;DHT22;15592;53.656;7.276;2023-07-20T02:42:58;14.50;99.90
28336;DHT22;15592;53.656;7.276;2023-07-20T02:45:23;14.50;99.90
28336;DHT22;15592;53.656;7.276;2023-07-20T02:47:49;14.50;99.90
28336;DHT22;15592;53.656;7.276;2023-07-20T02:50:14;14.50;99.90
28336;DHT22;15592;53.656;7.276;2023-07-20T02:52:40;14.50;99.90
28336;DHT22;15592;53.656;7.276;2023-07-20T02:55:06;14.50;99.90
28336;DHT22;15592;53.656;7.276;2023-07-20T02:57:32;14.50;99.90
28336;DHT22;15592;53.656;7.276;2023-07-20T02:59:58;14.50;99.90
28336;DHT22;15592;53.656;7.276;2023-07-20T03:02:23;14.50;99.90
28336;DHT22;15592;53.656;7.276;2023-07-20T03:04:49;14.50;99.90
28336;DHT22;15592;53.656;7.276;2023-07-20T03:07:14;14.50;99.90
28336;DHT22;15592;53.656;7.276;2023-07-20T03:09:40;14.60;99.90
28336;DHT22;15592;53.656;7.276;2023-07-20T03:12:06;14.60;99.90
28336;DHT22;15592;53.656;7.276;2023-07-20T03:14:32;14.70;99.90
28336;DHT22;15592;53.656;7.276;2023-07-20T03:16:58;14.80;99.90
28336;DHT22;15592;53.656;7.276;2023-07-20T03:19:23;14.80;99.90
28336;DHT22;15592;53.656;7.276;2023-07-20T03:21:49;14.70;99.90
28336;DHT22;15592;53.656;7.276;2023-07-20T03:24:15;14.70;99.90
28336;DHT22;15592;53.656;7.276;2023-07-20T03:26:41;14.50;99.90
28336;DHT22;15592;53.656;7.276;2023-07-20T03:29:07;14.50;99.90
28336;DHT22;15592;53.656;7.276;2023-07-20T03:31:33;14.50;99.90
28336;DHT22;15592;53.656;7.276;2023-07-20T03:33:59;14.50;99.90
28336;DHT22;15592;53.656;7.276;2023-07-20T03:36:24;14.40;99.90
28336;DHT22;15592;53.656;7.276;2023-07-20T03:38:50;14.40;99.90
28336;DHT22;15592;53.656;7.276;2023-07-20T03:41:16;14.40;99.90
28336;DHT22;15592;53.656;7.276;2023-07-20T03:43:41;14.40;99.90
28336;DHT22;15592;53.656;7.276;2023-07-20T03:46:07;14.40;99.90
28336;DHT22;15592;53.656;7.276;2023-07-20T03:48:33;14.50;99.90
28336;DHT22;15592;53.656;7.276;2023-07-20T03:50:59;14.50;99.90
28336;DHT22;15592;53.656;7.276;2023-07-20T03:53:26;14.50;99.90
28336;DHT22;15592;53.656;7.276;2023-07-20T03:55:52;14.50;99.90
28336;DHT22;15592;53.656;7.276;2023-07-20T03:58:19;14.50;99.90
28336;DHT22;15592;53.656;7.276;2023-07-20T04:00:50;14.40;99.90
28336;DHT22;15592;53.656;7.276;2023-07-20T04:03:17;14.40;99.90
28336;DHT22;15592;53.656;7.276;2023-07-20T04:05:44;14.40;99.90
28336;DHT22;15592;53.656;7.276;2023-07-20T04:08:10;14.40;99.90
28336;DHT22;15592;53.656;7.276;2023-07-20T04:10:37;14.50;99.90
28336;DHT22;15592;53.656;7.276;2023-07-20T04:13:03;14.50;99.90
28336;DHT22;15592;53.656;7.276;2023-07-20T04:15:29;14.50;99.90
28336;DHT22;15592;53.656;7.276;2023-07-20T04:17:55;14.60;99.90
28336;DHT22;15592;53.656;7.276;2023-07-20T04:20:22;14.60;99.90
28336;DHT22;15592;53.656;7.276;2023-07-20T04:22:48;14.60;99.90
28336;DHT22;15592;53.656;7.276;2023-07-20T04:25:14;14.60;99.90
28336;DHT22;15592;53.656;7.276;2023-07-20T04:27:39;14.70;99.90
28336;DHT22;15592;53.656;7.276;2023-07-20T04:30:07;14.60;99.90
28336;DHT22;15592;53.656;7.276;2023-07-20T04:32:33;14.60;99.90
28336;DHT22;15592;53.656;7.276;2023-07-20T04:34:59;14.60;99.90
28336;DHT22;15592;53.656;7.276;2023-07-20T04:37:25;14.60;99.90
28336;DHT22;15592;53.656;7.276;2023-07-20T04:39:50;14.60;99.90
28336;DHT22;15592;53.656;7.276;2023-07-20T04:42:16;14.60;99.90
28336;DHT22;15592;53.656;7.276;2023-07-20T04:44:41;14.60;99.90
28336;DHT22;15592;53.656;7.276;2023-07-20T04:47:07;14.60;99.90
28336;DHT22;15592;53.656;7.276;2023-07-20T04:49:34;14.60;99.90
28336;DHT22;15592;53.656;7.276;2023-07-20T04:52:00;14.70;99.90
28336;DHT22;15592;53.656;7.276;2023-07-20T04:54:25;14.70;99.90
28336;DHT22;15592;53.656;7.276;2023-07-20T04:56:53;14.80;99.90
28336;DHT22;15592;53.656;7.276;2023-07-20T04:59:18;14.80;99.90
28336;DHT22;15592;53.656;7.276;2023-07-20T05:01:44;14.80;99.90
28336;DHT22;15592;53.656;7.276;2023-07-20T05:04:11;14.90;99.90
28336;DHT22;15592;53.656;7.276;2023-07-20T05:06:36;15.00;99.90
28336;DHT22;15592;53.656;7.276;2023-07-20T05:09:04;15.10;99.90
28336;DHT22;15592;53.656;7.276;2023-07-20T05:11:30;15.20;99.90
28336;DHT22;15592;53.656;7.276;2023-07-20T05:13:56;15.30;99.90
28336;DHT22;15592;53.656;7.276;2023-07-20T05:16:22;15.30;99.90
28336;DHT22;15592;53.656;7.276;2023-07-20T05:18:47;15.40;99.90
28336;DHT22;15592;53.656;7.276;2023-07-20T05:21:13;15.50;99.90
28336;DHT22;15592;53.656;7.276;2023-07-20T05:23:39;15.50;99.90
28336;DHT22;15592;53.656;7.276;2023-07-20T05:26:04;15.60;99.90
28336;DHT22;15592;53.656;7.276;2023-07-20T05:28:30;15.70;99.90
28336;DHT22;15592;53.656;7.276;2023-07-20T05:30:55;15.70;99.90
28336;DHT22;15592;53.656;7.276;2023-07-20T05:33:22;15.70;99.90
28336;DHT22;15592;53.656;7.276;2023-07-20T05:35:48;15.60;99.90
28336;DHT22;15592;53.656;7.276;2023-07-20T05:38:13;15.60;99.90
28336;DHT22;15592;53.656;7.276;2023-07-20T05:40:43;15.60;99.90
28336;DHT22;15592;53.656;7.276;2023-07-20T05:43:11;15.60;99.90
28336;DHT22;15592;53.656;7.276;2023-07-20T05:45:37;15.60;99.90
28336;DHT22;15592;53.656;7.276;2023-07-20T05:48:02;15.60;99.90
28336;DHT22;15592;53.656;7.276;2023-07-20T05:50:28;15.60;99.90
28336;DHT22;15592;53.656;7.276;2023-07-20T05:52:54;15.70;99.90
28336;DHT22;15592;53.656;7.276;2023-07-20T05:55:20;15.70;99.90
28336;DHT22;15592;53.656;7.276;2023-07-20T05:57:46;15.60;99.90
28336;DHT22;15592;53.656;7.276;2023-07-20T06:00:13;15.60;99.90
28336;DHT22;15592;53.656;7.276;2023-07-20T06:02:39;15.60;99.90
28336;DHT22;15592;53.656;7.276;2023-07-20T06:05:06;15.50;99.90
28336;DHT22;15592;53.656;7.276;2023-07-20T06:07:38;15.60;99.90
28336;DHT22;15592;53.656;7.276;2023-07-20T06:10:07;15.60;99.90
28336;DHT22;15592;53.656;7.276;2023-07-20T06:12:33;15.60;99.90
28336;DHT22;15592;53.656;7.276;2023-07-20T06:15:02;15.60;99.90
28336;DHT22;15592;53.656;7.276;2023-07-20T06:17:29;15.70;99.90
28336;DHT22;15592;53.656;7.276;2023-07-20T06:19:54;15.70;99.90
28336;DHT22;15592;53.656;7.276;2023-07-20T06:22:20;15.70;99.90
28336;DHT22;15592;53.656;7.276;2023-07-20T06:24:45;15.60;99.90
28336;DHT22;15592;53.656;7.276;2023-07-20T06:27:11;15.60;99.90
28336;DHT22;15592;53.656;7.276;2023-07-20T06:29:37;15.70;99.90
28336;DHT22;15592;53.656;7.276;2023-07-20T06:32:04;15.70;99.90
28336;DHT22;15592;53.656;7.276;2023-07-20T06:34:30;15.90;99.90
28336;DHT22;15592;53.656;7.276;2023-07-20T06:36:56;15.90;99.90
28336;DHT22;15592;53.656;7.276;2023-07-20T06:39:22;16.00;99.90
28336;DHT22;15592;53.656;7.276;2023-07-20T06:41:48;15.90;99.90
28336;DHT22;15592;53.656;7.276;2023-07-20T06:44:13;16.00;99.90
28336;DHT22;15592;53.656;7.276;2023-07-20T06:46:39;16.00;99.90
28336;DHT22;15592;53.656;7.276;2023-07-20T06:49:06;16.10;99.90
28336;DHT22;15592;53.656;7.276;2023-07-20T06:51:33;16.10;99.90
28336;DHT22;15592;53.656;7.276;2023-07-20T06:53:58;16.10;99.90
28336;DHT22;15592;53.656;7.276;2023-07-20T06:56:24;16.10;99.90
28336;DHT22;15592;53.656;7.276;2023-07-20T06:58:49;16.20;99.90
28336;DHT22;15592;53.656;7.276;2023-07-20T07:01:15;16.10;99.90
28336;DHT22;15592;53.656;7.276;2023-07-20T07:03:42;16.20;99.90
28336;DHT22;15592;53.656;7.276;2023-07-20T07:06:09;16.10;99.90
28336;DHT22;15592;53.656;7.276;2023-07-20T07:08:35;16.20;99.90
28336;DHT22;15592;53.656;7.276;2023-07-20T07:11:01;16.30;99.90
28336;DHT22;15592;53.656;7.276;2023-07-20T07:13:27;16.40;99.90
28336;DHT22;15592;53.656;7.276;2023-07-20T07:15:53;16.50;99.90
28336;DHT22;15592;53.656;7.276;2023-07-20T07:18:19;16.50;99.90
28336;DHT22;15592;53.656;7.276;2023-07-20T07:20:51;16.50;99.90
28336;DHT22;15592;53.656;7.276;2023-07-20T07:23:17;16.50;99.90
28336;DHT22;15592;53.656;7.276;2023-07-20T07:25:43;16.60;99.90
28336;DHT22;15592;53.656;7.276;2023-07-20T07:28:08;16.60;99.90
28336;DHT22;15592;53.656;7.276;2023-07-20T07:30:34;16.70;99.90
28336;DHT22;15592;53.656;7.276;2023-07-20T07:33:00;16.80;99.90
28336;DHT22;15592;53.656;7.276;2023-07-20T07:35:25;16.80;99.90
28336;DHT22;15592;53.656;7.276;2023-07-20T07:37:51;16.80;99.90
28336;DHT22;15592;53.656;7.276;2023-07-20T07:40:16;16.80;99.90
28336;DHT22;15592;53.656;7.276;2023-07-20T07:42:42;16.80;99.90
28336;DHT22;15592;53.656;7.276;2023-07-20T07:45:08;16.90;99.90
28336;DHT22;15592;53.656;7.276;2023-07-20T07:47:34;16.90;99.90
28336;DHT22;15592;53.656;7.276;2023-07-20T07:49:59;16.80;99.90
28336;DHT22;15592;53.656;7.276;2023-07-20T07:52:25;16.80;99.90
28336;DHT22;15592;53.656;7.276;2023-07-20T07:54:50;16.90;99.90
28336;DHT22;15592;53.656;7.276;2023-07-20T07:57:16;17.10;99.90
28336;DHT22;15592;53.656;7.276;2023-07-20T07:59:45;17.20;99.90
28336;DHT22;15592;53.656;7.276;2023-07-20T08:02:10;17.20;99.90
28336;DHT22;15592;53.656;7.276;2023-07-20T08:04:36;17.10;99.90
28336;DHT22;15592;53.656;7.276;2023-07-20T08:07:04;17.10;99.90
28336;DHT22;15592;53.656;7.276;2023-07-20T08:09:29;17.20;99.90
28336;DHT22;15592;53.656;7.276;2023-07-20T08:11:55;17.30;99.90
28336;DHT22;15592;53.656;7.276;2023-07-20T08:14:21;17.20;99.90
28336;DHT22;15592;53.656;7.276;2023-07-20T08:16:46;17.20;99.90
28336;DHT22;15592;53.656;7.276;2023-07-20T08:19:12;17.10;99.90
28336;DHT22;15592;53.656;7.276;2023-07-20T08:21:38;17.00;99.90
28336;DHT22;15592;53.656;7.276;2023-07-20T08:24:04;17.00;99.90
28336;DHT22;15592;53.656;7.276;2023-07-20T08:26:29;17.00;99.90
28336;DHT22;15592;53.656;7.276;2023-07-20T08:28:55;17.10;99.90
28336;DHT22;15592;53.656;7.276;2023-07-20T08:31:30;17.10;99.90
28336;DHT22;15592;53.656;7.276;2023-07-20T08:33:59;17.10;99.90
28336;DHT22;15592;53.656;7.276;2023-07-20T08:36:25;17.10;99.90
28336;DHT22;15592;53.656;7.276;2023-07-20T08:38:51;17.10;99.90
28336;DHT22;15592;53.656;7.276;2023-07-20T08:41:17;17.10;99.90
28336;DHT22;15592;53.656;7.276;2023-07-20T08:43:45;17.10;99.90
28336;DHT22;15592;53.656;7.276;2023-07-20T08:46:12;17.20;99.90
28336;DHT22;15592;53.656;7.276;2023-07-20T08:48:40;17.30;99.90
28336;DHT22;15592;53.656;7.276;2023-07-20T08:51:07;17.40;99.90
28336;DHT22;15592;53.656;7.276;2023-07-20T08:53:33;17.60;99.90
28336;DHT22;15592;53.656;7.276;2023-07-20T08:56:05;17.60;99.90
28336;DHT22;15592;53.656;7.276;2023-07-20T08:58:36;17.60;99.90
28336;DHT22;15592;53.656;7.276;2023-07-20T09:01:03;17.60;99.90
28336;DHT22;15592;53.656;7.276;2023-07-20T09:03:29;17.70;99.90
28336;DHT22;15592;53.656;7.276;2023-07-20T09:05:54;17.70;99.90
28336;DHT22;15592;53.656;7.276;2023-07-20T09:08:20;17.60;99.90
28336;DHT22;15592;53.656;7.276;2023-07-20T09:10:46;17.60;99.90
28336;DHT22;15592;53.656;7.276;2023-07-20T09:13:15;17.70;99.90
28336;DHT22;15592;53.656;7.276;2023-07-20T09:15:46;17.70;99.90
28336;DHT22;15592;53.656;7.276;2023-07-20T09:18:29;17.80;99.90
28336;DHT22;15592;53.656;7.276;2023-07-20T09:20:58;17.90;99.90
28336;DHT22;15592;53.656;7.276;2023-07-20T09:23:36;18.00;99.90
28336;DHT22;15592;53.656;7.276;2023-07-20T09:26:11;18.10;99.90
28336;DHT22;15592;53.656;7.276;2023-07-20T09:28:43;18.10;99.90
28336;DHT22;15592;53.656;7.276;2023-07-20T09:31:19;18.20;99.90
28336;DHT22;15592;53.656;7.276;2023-07-20T09:33:46;18.20;99.90
28336;DHT22;15592;53.656;7.276;2023-07-20T09:36:12;18.10;99.90
28336;DHT22;15592;53.656;7.276;2023-07-20T09:38:41;18.10;99.90
28336;DHT22;15592;53.656;7.276;2023-07-20T09:41:12;18.10;99.90
28336;DHT22;15592;53.656;7.276;2023-07-20T09:43:38;18.10;99.90
28336;DHT22;15592;53.656;7.276;2023-07-20T09:46:05;18.20;99.90
28336;DHT22;15592;53.656;7.276;2023-07-20T09:48:30;18.30;99.90
28336;DHT22;15592;53.656;7.276;2023-07-20T09:50:57;18.30;99.90
28336;DHT22;15592;53.656;7.276;2023-07-20T09:53:26;18.30;99.90
28336;DHT22;15592;53.656;7.276;2023-07-20T09:55:52;18.30;99.90
28336;DHT22;15592;53.656;7.276;2023-07-20T09:58:19;18.40;99.90
28336;DHT22;15592;53.656;7.276;2023-07-20T10:00:46;18.40;99.90
28336;DHT22;15592;53.656;7.276;2023-07-20T10:03:18;18.50;99.90
28336;DHT22;15592;53.656;7.276;2023-07-20T10:05:58;18.50;99.90
28336;DHT22;15592;53.656;7.276;2023-07-20T10:08:25;18.70;99.90
28336;DHT22;15592;53.656;7.276;2023-07-20T10:10:51;18.70;99.90
28336;DHT22;15592;53.656;7.276;2023-07-20T10:13:18;18.70;99.90
28336;DHT22;15592;53.656;7.276;2023-07-20T10:15:56;18.70;99.90
28336;DHT22;15592;53.656;7.276;2023-07-20T10:18:31;18.80;99.90
28336;DHT22;15592;53.656;7.276;2023-07-20T10:21:00;18.80;99.90
28336;DHT22;15592;53.656;7.276;2023-07-20T10:23:29;18.80;99.90
28336;DHT22;15592;53.656;7.276;2023-07-20T10:25:56;18.90;99.90
28336;DHT22;15592;53.656;7.276;2023-07-20T10:28:22;19.00;99.90
28336;DHT22;15592;53.656;7.276;2023-07-20T10:30:49;19.00;99.90
28336;DHT22;15592;53.656;7.276;2023-07-20T10:33:17;19.10;99.90
28336;DHT22;15592;53.656;7.276;2023-07-20T10:36:11;19.00;99.90
28336;DHT22;15592;53.656;7.276;2023-07-20T10:41:27;19.00;99.90
28336;DHT22;15592;53.656;7.276;2023-07-20T10:44:04;19.10;99.90
28336;DHT22;15592;53.656;7.276;2023-07-20T10:49:09;19.00;99.90
28336;DHT22;15592;53.656;7.276;2023-07-20T10:51:59;18.80;99.90
28336;DHT22;15592;53.656;7.276;2023-07-20T10:56:51;18.80;99.90
28336;DHT22;15592;53.656;7.276;2023-07-20T11:01:50;19.00;99.90
28336;DHT22;15592;53.656;7.276;2023-07-20T11:04:46;19.10;99.90
28336;DHT22;15592;53.656;7.276;2023-07-20T11:07:17;19.10;99.90
28336;DHT22;15592;53.656;7.276;2023-07-20T11:09:43;19.10;99.90
28336;DHT22;15592;53.656;7.276;2023-07-20T11:12:10;19.10;99.90
28336;DHT22;15592;53.656;7.276;2023-07-20T11:14:41;19.10;99.90
28336;DHT22;15592;53.656;7.276;2023-07-20T11:17:14;19.20;99.90
28336;DHT22;15592;53.656;7.276;2023-07-20T11:19:40;19.10;99.90
28336;DHT22;15592;53.656;7.276;2023-07-20T11:22:07;19.10;99.90
28336;DHT22;15592;53.656;7.276;2023-07-20T11:24:33;19.10;99.90
28336;DHT22;15592;53.656;7.276;2023-07-20T11:26:59;19.10;99.90
28336;DHT22;15592;53.656;7.276;2023-07-20T11:29:26;19.10;99.90
28336;DHT22;15592;53.656;7.276;2023-07-20T11:31:52;19.10;99.90
28336;DHT22;15592;53.656;7.276;2023-07-20T11:34:19;19.10;99.90
28336;DHT22;15592;53.656;7.276;2023-07-20T11:36:47;19.10;99.90
28336;DHT22;15592;53.656;7.276;2023-07-20T11:39:14;19.10;99.90
28336;DHT22;15592;53.656;7.276;2023-07-20T11:41:48;19.10;99.90
28336;DHT22;15592;53.656;7.276;2023-07-20T11:44:15;19.20;99.90
28336;DHT22;15592;53.656;7.276;2023-07-20T11:46:42;19.20;99.90
28336;DHT22;15592;53.656;7.276;2023-07-20T11:49:08;19.20;99.90
28336;DHT22;15592;53.656;7.276;2023-07-20T11:51:34;19.10;99.90
28336;DHT22;15592;53.656;7.276;2023-07-20T11:54:02;19.20;99.90
28336;DHT22;15592;53.656;7.276;2023-07-20T11:56:28;19.20;99.90
28336;DHT22;15592;53.656;7.276;2023-07-20T11:58:58;19.20;99.90
28336;DHT22;15592;53.656;7.276;2023-07-20T12:01:27;19.30;99.90
28336;DHT22;15592;53.656;7.276;2023-07-20T12:04:02;19.30;99.90
28336;DHT22;15592;53.656;7.276;2023-07-20T12:06:29;19.20;99.90
28336;DHT22;15592;53.656;7.276;2023-07-20T12:08:58;19.20;99.90
28336;DHT22;15592;53.656;7.276;2023-07-20T12:11:32;19.20;99.90
28336;DHT22;15592;53.656;7.276;2023-07-20T12:13:58;19.20;99.90
28336;DHT22;15592;53.656;7.276;2023-07-20T12:16:27;19.20;99.90
28336;DHT22;15592;53.656;7.276;2023-07-20T12:19:12;19.20;99.90
28336;DHT22;15592;53.656;7.276;2023-07-20T12:21:40;19.20;99.90
28336;DHT22;15592;53.656;7.276;2023-07-20T12:24:08;19.10;99.90
28336;DHT22;15592;53.656;7.276;2023-07-20T12:26:37;19.10;99.90
28336;DHT22;15592;53.656;7.276;2023-07-20T12:29:03;19.20;99.90
28336;DHT22;15592;53.656;7.276;2023-07-20T12:31:30;19.30;99.90
28336;DHT22;15592;53.656;7.276;2023-07-20T12:33:57;19.30;99.90
28336;DHT22;15592;53.656;7.276;2023-07-20T12:36:24;19.20;99.90
28336;DHT22;15592;53.656;7.276;2023-07-20T12:38:50;19.20;99.90
28336;DHT22;15592;53.656;7.276;2023-07-20T12:41:15;19.20;99.90
28336;DHT22;15592;53.656;7.276;2023-07-20T12:43:42;19.20;99.90
28336;DHT22;15592;53.656;7.276;2023-07-20T12:46:08;19.10;99.90
28336;DHT22;15592;53.656;7.276;2023-07-20T12:48:35;19.10;99.90
28336;DHT22;15592;53.656;7.276;2023-07-20T12:51:06;19.10;99.90
28336;DHT22;15592;53.656;7.276;2023-07-20T12:53:32;19.10;99.90
28336;DHT22;15592;53.656;7.276;2023-07-20T12:56:00;19.10;99.90
28336;DHT22;15592;53.656;7.276;2023-07-20T12:58:29;19.10;99.90
28336;DHT22;15592;53.656;7.276;2023-07-20T13:00:54;19.10;99.90
28336;DHT22;15592;53.656;7.276;2023-07-20T13:03:20;19.20;99.90
28336;DHT22;15592;53.656;7.276;2023-07-20T13:05:47;19.20;99.90
28336;DHT22;15592;53.656;7.276;2023-07-20T13:08:13;19.20;99.90
28336;DHT22;15592;53.656;7.276;2023-07-20T13:10:42;19.30;99.90
28336;DHT22;15592;53.656;7.276;2023-07-20T13:13:08;19.20;99.90
28336;DHT22;15592;53.656;7.276;2023-07-20T13:15:41;19.20;99.90
28336;DHT22;15592;53.656;7.276;2023-07-20T13:18:07;19.10;99.90
28336;DHT22;15592;53.656;7.276;2023-07-20T13:20:33;19.20;99.90
28336;DHT22;15592;53.656;7.276;2023-07-20T13:22:58;19.20;99.90
28336;DHT22;15592;53.656;7.276;2023-07-20T13:25:25;19.20;99.90
28336;DHT22;15592;53.656;7.276;2023-07-20T13:27:53;19.20;99.90
28336;DHT22;15592;53.656;7.276;2023-07-20T13:30:18;19.30;99.90
28336;DHT22;15592;53.656;7.276;2023-07-20T13:32:44;19.30;99.90
28336;DHT22;15592;53.656;7.276;2023-07-20T13:35:11;19.30;99.90
28336;DHT22;15592;53.656;7.276;2023-07-20T13:37:37;19.30;99.90
28336;DHT22;15592;53.656;7.276;2023-07-20T13:40:03;19.30;99.90
28336;DHT22;15592;53.656;7.276;2023-07-20T13:42:33;19.30;99.90
28336;DHT22;15592;53.656;7.276;2023-07-20T13:44:59;19.30;99.90
28336;DHT22;15592;53.656;7.276;2023-07-20T13:47:26;19.30;99.90
28336;DHT22;15592;53.656;7.276;2023-07-20T13:49:52;19.30;99.90
28336;DHT22;15592;53.656;7.276;2023-07-20T13:52:17;19.40;99.90
28336;DHT22;15592;53.656;7.276;2023-07-20T13:54:43;19.40;99.90
28336;DHT22;15592;53.656;7.276;2023-07-20T13:57:09;19.30;99.90
28336;DHT22;15592;53.656;7.276;2023-07-20T13:59:34;19.30;99.90
28336;DHT22;15592;53.656;7.276;2023-07-20T14:02:00;19.30;99.90
28336;DHT22;15592;53.656;7.276;2023-07-20T14:04:26;19.30;99.90
28336;DHT22;15592;53.656;7.276;2023-07-20T14:06:51;19.20;99.90
28336;DHT22;15592;53.656;7.276;2023-07-20T14:09:17;19.20;99.90
28336;DHT22;15592;53.656;7.276;2023-07-20T14:11:42;19.30;99.90
28336;DHT22;15592;53.656;7.276;2023-07-20T14:14:09;19.30;99.90
28336;DHT22;15592;53.656;7.276;2023-07-20T14:16:34;19.30;99.90
28336;DHT22;15592;53.656;7.276;2023-07-20T14:19:00;19.30;99.90
28336;DHT22;15592;53.656;7.276;2023-07-20T14:21:26;19.30;99.90
28336;DHT22;15592;53.656;7.276;2023-07-20T14:23:52;19.30;99.90
28336;DHT22;15592;53.656;7.276;2023-07-20T14:26:21;19.30;99.90
28336;DHT22;15592;53.656;7.276;2023-07-20T14:28:46;19.30;99.90
28336;DHT22;15592;53.656;7.276;2023-07-20T14:31:12;19.40;99.90
28336;DHT22;15592;53.656;7.276;2023-07-20T14:33:38;19.30;99.90
28336;DHT22;15592;53.656;7.276;2023-07-20T14:36:04;19.30;99.90
28336;DHT22;15592;53.656;7.276;2023-07-20T14:38:34;19.30;99.90
28336;DHT22;15592;53.656;7.276;2023-07-20T14:40:59;19.30;99.90
28336;DHT22;15592;53.656;7.276;2023-07-20T14:43:25;19.30;99.90
28336;DHT22;15592;53.656;7.276;2023-07-20T14:45:51;19.40;99.90
28336;DHT22;15592;53.656;7.276;2023-07-20T14:48:16;19.40;99.90
28336;DHT22;15592;53.656;7.276;2023-07-20T14:50:42;19.40;99.90
28336;DHT22;15592;53.656;7.276;2023-07-20T14:53:13;19.40;99.90
28336;DHT22;15592;53.656;7.276;2023-07-20T14:55:41;19.40;99.90
28336;DHT22;15592;53.656;7.276;2023-07-20T14:58:07;19.40;99.90
28336;DHT22;15592;53.656;7.276;2023-07-20T15:00:32;19.40;99.90
28336;DHT22;15592;53.656;7.276;2023-07-20T15:02:58;19.40;99.90
28336;DHT22;15592;53.656;7.276;2023-07-20T15:05:24;19.50;99.90
28336;DHT22;15592;53.656;7.276;2023-07-20T15:07:52;19.50;99.90
28336;DHT22;15592;53.656;7.276;2023-07-20T15:10:17;19.50;99.90
28336;DHT22;15592;53.656;7.276;2023-07-20T15:12:43;19.40;99.90
28336;DHT22;15592;53.656;7.276;2023-07-20T15:15:11;19.50;99.90
28336;DHT22;15592;53.656;7.276;2023-07-20T15:17:38;19.50;99.90
28336;DHT22;15592;53.656;7.276;2023-07-20T15:20:05;19.50;99.90
28336;DHT22;15592;53.656;7.276;2023-07-20T15:22:35;19.50;99.90
28336;DHT22;15592;53.656;7.276;2023-07-20T15:25:05;19.50;99.90
28336;DHT22;15592;53.656;7.276;2023-07-20T15:27:32;19.60;99.90
28336;DHT22;15592;53.656;7.276;2023-07-20T15:29:58;19.60;99.90
28336;DHT22;15592;53.656;7.276;2023-07-20T15:32:23;19.60;99.90
28336;DHT22;15592;53.656;7.276;2023-07-20T15:34:49;19.60;99.90
28336;DHT22;15592;53.656;7.276;2023-07-20T15:37:15;19.60;99.90
28336;DHT22;15592;53.656;7.276;2023-07-20T15:39:40;19.60;99.90
28336;DHT22;15592;53.656;7.276;2023-07-20T15:42:07;19.60;99.90
28336;DHT22;15592;53.656;7.276;2023-07-20T15:44:33;19.60;99.90
28336;DHT22;15592;53.656;7.276;2023-07-20T15:46:59;19.60;99.90